Airfield :







YOU CAN JOIN US ON...

 
LOGIN :

Register | Disclaimer

   EN    FR    IT 

 









Legend :    VFR   Marginal VFR   IFR   Intensive IFR   Very Intensive IFR
Visi :
Ceiling :
>= 8 km
>= 3000ft
5 to 8 km
1000 to 3000 ft
1500m to 5 km
500 to 1000 ft
800 to 1500m
200 to 500 ft
< 800m
< 200 ft
Symbols :   Thunderstorms  Fog  Heavy snow  Heavy precipitations  Wind > 20 kt






- Airport Elevation : 881 ft


KNY0 - Fulton County

CURRENT METAR :
  • 171833Z AUTO 13005KT 10SM SCT013 OVC042 21/21 A3026 RMK AO2

EXPIRED METARs :
  • 171813Z AUTO 12005KT 10SM SCT035 OVC044 21/21 A3027 RMK AO2
  • 171753Z AUTO 14007KT 10SM SCT026 OVC035 21/21 A3028 RMK AO2
  • 171713Z AUTO 15008KT 10SM OVC012 20/20 A3029 RMK AO2
  • 171653Z AUTO 15007KT 10SM OVC009 19/19 A3030 RMK AO2
  • 171633Z AUTO 16006KT 10SM OVC009 19/19 A3030 RMK AO2
  • 171613Z AUTO 14005KT 10SM OVC009 19/19 A3030 RMK AO2
  • 171553Z AUTO 15003KT 7SM OVC009 19/18 A3030 RMK AO2

TAF N/A



MET'MAP, your aeronautical weather chart ! - Copyright ORBIFLY December 2007 - Disclaimer

ORBIFLY MET'MAP TEAM :

Programming & Development : Alexandra Zaïnal
Concept & original design : Baudouin d'Aumeries
Assistance for programming : Marc-Olivier Méhu
Technical & hardware support : Manuel Goepfert

Contact : metmap@orbifly.com




SOURCES & CREDITS :

   NOAA